sensor_id;sensor_type;location;lat;lon;timestamp;temperature;humidity
69938;DHT22;57248;47.320;15.998;2022-10-15T00:00:06;8.78;93.78
69938;DHT22;57248;47.320;15.998;2022-10-15T00:02:52;8.82;94.60
69938;DHT22;57248;47.320;15.998;2022-10-15T00:05:24;8.75;95.35
69938;DHT22;57248;47.320;15.998;2022-10-15T00:07:57;8.85;94.89
69938;DHT22;57248;47.320;15.998;2022-10-15T00:10:29;8.82;95.29
69938;DHT22;57248;47.320;15.998;2022-10-15T00:13:01;8.84;94.10
69938;DHT22;57248;47.320;15.998;2022-10-15T00:15:35;8.86;94.19
69938;DHT22;57248;47.320;15.998;2022-10-15T00:18:08;8.86;93.93
69938;DHT22;57248;47.320;15.998;2022-10-15T00:20:33;8.82;94.72
69938;DHT22;57248;47.320;15.998;2022-10-15T00:23:05;8.79;95.03
69938;DHT22;57248;47.320;15.998;2022-10-15T00:25:37;8.93;94.28
69938;DHT22;57248;47.320;15.998;2022-10-15T00:28:12;8.79;95.16
69938;DHT22;57248;47.320;15.998;2022-10-15T00:30:44;8.91;94.56
69938;DHT22;57248;47.320;15.998;2022-10-15T00:33:17;8.91;94.27
69938;DHT22;57248;47.320;15.998;2022-10-15T00:35:57;8.93;94.42
69938;DHT22;57248;47.320;15.998;2022-10-15T00:38:29;8.96;94.92
69938;DHT22;57248;47.320;15.998;2022-10-15T00:40:55;8.95;95.10
69938;DHT22;57248;47.320;15.998;2022-10-15T00:43:48;8.93;94.64
69938;DHT22;57248;47.320;15.998;2022-10-15T00:49:10;8.89;94.26
69938;DHT22;57248;47.320;15.998;2022-10-15T00:51:50;8.84;94.80
69938;DHT22;57248;47.320;15.998;2022-10-15T00:54:26;8.81;94.29
69938;DHT22;57248;47.320;15.998;2022-10-15T00:56:59;8.75;94.70
69938;DHT22;57248;47.320;15.998;2022-10-15T00:59:36;8.74;94.16
69938;DHT22;57248;47.320;15.998;2022-10-15T01:02:10;8.76;94.43
69938;DHT22;57248;47.320;15.998;2022-10-15T01:04:51;8.69;95.03
69938;DHT22;57248;47.320;15.998;2022-10-15T01:07:24;8.68;94.99
69938;DHT22;57248;47.320;15.998;2022-10-15T01:09:56;8.57;95.24
69938;DHT22;57248;47.320;15.998;2022-10-15T01:18:02;8.47;95.41
69938;DHT22;57248;47.320;15.998;2022-10-15T01:37:56;8.38;94.48
69938;DHT22;57248;47.320;15.998;2022-10-15T01:40:33;8.37;94.25
69938;DHT22;57248;47.320;15.998;2022-10-15T01:43:11;8.26;94.94
69938;DHT22;57248;47.320;15.998;2022-10-15T01:46:10;8.19;94.80
69938;DHT22;57248;47.320;15.998;2022-10-15T01:49:03;8.13;93.89
69938;DHT22;57248;47.320;15.998;2022-10-15T01:51:37;8.09;93.80
69938;DHT22;57248;47.320;15.998;2022-10-15T01:54:14;8.07;94.32
69938;DHT22;57248;47.320;15.998;2022-10-15T01:56:51;8.12;93.99
69938;DHT22;57248;47.320;15.998;2022-10-15T01:59:31;8.03;93.70
69938;DHT22;57248;47.320;15.998;2022-10-15T02:02:05;7.96;94.76
69938;DHT22;57248;47.320;15.998;2022-10-15T02:04:44;7.94;93.31
69938;DHT22;57248;47.320;15.998;2022-10-15T02:07:43;7.87;93.60
69938;DHT22;57248;47.320;15.998;2022-10-15T02:16:12;7.63;92.91
69938;DHT22;57248;47.320;15.998;2022-10-15T02:21:29;7.69;94.41
69938;DHT22;57248;47.320;15.998;2022-10-15T02:26:40;7.69;94.55
69938;DHT22;57248;47.320;15.998;2022-10-15T02:29:18;7.66;95.49
69938;DHT22;57248;47.320;15.998;2022-10-15T02:31:53;7.69;95.73
69938;DHT22;57248;47.320;15.998;2022-10-15T02:34:29;7.66;94.56
69938;DHT22;57248;47.320;15.998;2022-10-15T02:37:04;7.65;94.35
69938;DHT22;57248;47.320;15.998;2022-10-15T02:39:32;7.56;93.55
69938;DHT22;57248;47.320;15.998;2022-10-15T02:42:05;7.52;93.49
69938;DHT22;57248;47.320;15.998;2022-10-15T02:44:38;7.47;94.09
69938;DHT22;57248;47.320;15.998;2022-10-15T02:47:10;7.48;93.98
69938;DHT22;57248;47.320;15.998;2022-10-15T02:49:43;7.51;93.53
69938;DHT22;57248;47.320;15.998;2022-10-15T02:52:16;7.52;93.98
69938;DHT22;57248;47.320;15.998;2022-10-15T02:54:47;7.54;94.02
69938;DHT22;57248;47.320;15.998;2022-10-15T02:57:20;7.48;93.91
69938;DHT22;57248;47.320;15.998;2022-10-15T02:59:52;7.55;94.18
69938;DHT22;57248;47.320;15.998;2022-10-15T03:02:32;7.51;94.16
69938;DHT22;57248;47.320;15.998;2022-10-15T03:05:05;7.45;94.26
69938;DHT22;57248;47.320;15.998;2022-10-15T03:07:38;7.51;94.01
69938;DHT22;57248;47.320;15.998;2022-10-15T03:10:10;7.51;94.64
69938;DHT22;57248;47.320;15.998;2022-10-15T03:12:42;7.56;94.56
69938;DHT22;57248;47.320;15.998;2022-10-15T03:15:15;7.61;94.16
69938;DHT22;57248;47.320;15.998;2022-10-15T03:17:49;7.63;93.96
69938;DHT22;57248;47.320;15.998;2022-10-15T03:20:16;7.58;94.86
69938;DHT22;57248;47.320;15.998;2022-10-15T03:22:48;7.59;94.99
69938;DHT22;57248;47.320;15.998;2022-10-15T03:25:20;7.58;96.09
69938;DHT22;57248;47.320;15.998;2022-10-15T03:27:59;7.68;95.01
69938;DHT22;57248;47.320;15.998;2022-10-15T03:30:37;7.72;95.22
69938;DHT22;57248;47.320;15.998;2022-10-15T03:33:10;7.79;95.47
69938;DHT22;57248;47.320;15.998;2022-10-15T03:35:44;7.79;95.72
69938;DHT22;57248;47.320;15.998;2022-10-15T03:38:16;7.82;95.53
69938;DHT22;57248;47.320;15.998;2022-10-15T03:40:49;7.83;95.34
69938;DHT22;57248;47.320;15.998;2022-10-15T03:43:31;7.89;95.59
69938;DHT22;57248;47.320;15.998;2022-10-15T03:46:04;7.86;95.40
69938;DHT22;57248;47.320;15.998;2022-10-15T03:48:41;7.87;95.41
69938;DHT22;57248;47.320;15.998;2022-10-15T03:51:13;7.89;95.53
69938;DHT22;57248;47.320;15.998;2022-10-15T03:53:49;7.83;96.05
69938;DHT22;57248;47.320;15.998;2022-10-15T03:56:22;7.85;95.59
69938;DHT22;57248;47.320;15.998;2022-10-15T03:59:06;7.89;95.92
69938;DHT22;57248;47.320;15.998;2022-10-15T04:01:38;7.87;96.12
69938;DHT22;57248;47.320;15.998;2022-10-15T04:04:18;7.92;96.22
69938;DHT22;57248;47.320;15.998;2022-10-15T04:06:50;8.00;95.81
69938;DHT22;57248;47.320;15.998;2022-10-15T04:09:22;7.97;96.05
69938;DHT22;57248;47.320;15.998;2022-10-15T04:12:15;7.90;96.32
69938;DHT22;57248;47.320;15.998;2022-10-15T04:14:48;7.83;96.88
69938;DHT22;57248;47.320;15.998;2022-10-15T04:17:20;7.82;96.83
69938;DHT22;57248;47.320;15.998;2022-10-15T04:19:52;7.90;97.01
69938;DHT22;57248;47.320;15.998;2022-10-15T04:22:25;7.93;97.60
69938;DHT22;57248;47.320;15.998;2022-10-15T04:24:59;8.07;96.85
69938;DHT22;57248;47.320;15.998;2022-10-15T04:27:32;8.16;96.56
69938;DHT22;57248;47.320;15.998;2022-10-15T04:30:08;8.22;96.42
69938;DHT22;57248;47.320;15.998;2022-10-15T04:32:50;8.22;96.15
69938;DHT22;57248;47.320;15.998;2022-10-15T04:35:23;8.19;96.02
69938;DHT22;57248;47.320;15.998;2022-10-15T04:38:01;8.19;96.27
69938;DHT22;57248;47.320;15.998;2022-10-15T04:41:08;8.19;95.75
69938;DHT22;57248;47.320;15.998;2022-10-15T04:44:01;8.26;95.89
69938;DHT22;57248;47.320;15.998;2022-10-15T04:46:33;8.19;95.79
69938;DHT22;57248;47.320;15.998;2022-10-15T04:49:24;8.29;96.36
69938;DHT22;57248;47.320;15.998;2022-10-15T04:51:56;8.29;96.39
69938;DHT22;57248;47.320;15.998;2022-10-15T04:54:46;8.29;96.69
69938;DHT22;57248;47.320;15.998;2022-10-15T04:57:19;8.29;97.04
69938;DHT22;57248;47.320;15.998;2022-10-15T04:59:44;8.34;96.34
69938;DHT22;57248;47.320;15.998;2022-10-15T05:02:55;8.37;96.17
69938;DHT22;57248;47.320;15.998;2022-10-15T05:06:02;8.41;96.37
69938;DHT22;57248;47.320;15.998;2022-10-15T05:08:37;8.43;95.80
69938;DHT22;57248;47.320;15.998;2022-10-15T05:11:23;8.50;96.39
69938;DHT22;57248;47.320;15.998;2022-10-15T05:13:57;8.50;96.24
69938;DHT22;57248;47.320;15.998;2022-10-15T05:16:31;8.54;96.17
69938;DHT22;57248;47.320;15.998;2022-10-15T05:19:06;8.57;96.18
69938;DHT22;57248;47.320;15.998;2022-10-15T05:21:40;8.62;96.40
69938;DHT22;57248;47.320;15.998;2022-10-15T05:24:21;8.60;96.14
69938;DHT22;57248;47.320;15.998;2022-10-15T05:27:01;8.65;96.11
69938;DHT22;57248;47.320;15.998;2022-10-15T05:29:34;8.68;96.31
69938;DHT22;57248;47.320;15.998;2022-10-15T05:32:08;8.75;96.06
69938;DHT22;57248;47.320;15.998;2022-10-15T05:34:40;8.81;96.00
69938;DHT22;57248;47.320;15.998;2022-10-15T05:37:14;8.84;95.84
69938;DHT22;57248;47.320;15.998;2022-10-15T05:39:48;8.85;95.89
69938;DHT22;57248;47.320;15.998;2022-10-15T05:42:20;8.93;95.75
69938;DHT22;57248;47.320;15.998;2022-10-15T05:44:56;9.20;96.57
69938;DHT22;57248;47.320;15.998;2022-10-15T05:47:29;9.27;96.69
69938;DHT22;57248;47.320;15.998;2022-10-15T05:50:14;9.50;97.02
69938;DHT22;57248;47.320;15.998;2022-10-15T05:52:47;9.64;96.93
69938;DHT22;57248;47.320;15.998;2022-10-15T05:55:25;9.64;95.92
69938;DHT22;57248;47.320;15.998;2022-10-15T05:58:00;9.51;95.33
69938;DHT22;57248;47.320;15.998;2022-10-15T06:00:34;9.42;95.86
69938;DHT22;57248;47.320;15.998;2022-10-15T06:03:20;9.29;96.02
69938;DHT22;57248;47.320;15.998;2022-10-15T06:05:52;9.33;95.64
69938;DHT22;57248;47.320;15.998;2022-10-15T06:08:18;9.43;95.80
69938;DHT22;57248;47.320;15.998;2022-10-15T06:10:51;9.60;94.78
69938;DHT22;57248;47.320;15.998;2022-10-15T06:13:23;9.77;94.54
69938;DHT22;57248;47.320;15.998;2022-10-15T06:15:55;9.80;94.94
69938;DHT22;57248;47.320;15.998;2022-10-15T06:18:27;9.77;95.51
69938;DHT22;57248;47.320;15.998;2022-10-15T06:20:53;9.75;95.67
69938;DHT22;57248;47.320;15.998;2022-10-15T06:23:26;9.74;95.75
69938;DHT22;57248;47.320;15.998;2022-10-15T06:26:05;9.85;95.94
69938;DHT22;57248;47.320;15.998;2022-10-15T06:28:40;9.99;95.08
69938;DHT22;57248;47.320;15.998;2022-10-15T06:31:12;10.06;94.46
69938;DHT22;57248;47.320;15.998;2022-10-15T06:33:44;10.15;94.45
69938;DHT22;57248;47.320;15.998;2022-10-15T06:36:16;10.15;94.54
69938;DHT22;57248;47.320;15.998;2022-10-15T06:38:48;10.25;94.17
69938;DHT22;57248;47.320;15.998;2022-10-15T06:41:13;10.28;93.98
69938;DHT22;57248;47.320;15.998;2022-10-15T06:43:48;10.32;93.90
69938;DHT22;57248;47.320;15.998;2022-10-15T06:46:20;10.35;93.95
69938;DHT22;57248;47.320;15.998;2022-10-15T06:48:53;10.57;93.15
69938;DHT22;57248;47.320;15.998;2022-10-15T06:51:26;10.77;92.44
69938;DHT22;57248;47.320;15.998;2022-10-15T06:53:58;11.06;91.76
69938;DHT22;57248;47.320;15.998;2022-10-15T06:56:30;11.38;90.86
69938;DHT22;57248;47.320;15.998;2022-10-15T06:59:04;11.35;90.75
69938;DHT22;57248;47.320;15.998;2022-10-15T07:01:36;11.32;90.49
69938;DHT22;57248;47.320;15.998;2022-10-15T07:04:15;11.14;91.30
69938;DHT22;57248;47.320;15.998;2022-10-15T07:06:47;11.04;91.96
69938;DHT22;57248;47.320;15.998;2022-10-15T07:09:20;11.00;92.19
69938;DHT22;57248;47.320;15.998;2022-10-15T07:11:53;10.99;92.51
69938;DHT22;57248;47.320;15.998;2022-10-15T07:14:25;11.14;91.96
69938;DHT22;57248;47.320;15.998;2022-10-15T07:16:58;11.24;91.21
69938;DHT22;57248;47.320;15.998;2022-10-15T07:19:30;11.41;90.99
69938;DHT22;57248;47.320;15.998;2022-10-15T07:22:02;11.51;90.73
69938;DHT22;57248;47.320;15.998;2022-10-15T07:24:35;11.71;90.20
69938;DHT22;57248;47.320;15.998;2022-10-15T07:27:07;11.99;89.27
69938;DHT22;57248;47.320;15.998;2022-10-15T07:29:32;12.09;89.02
69938;DHT22;57248;47.320;15.998;2022-10-15T07:32:04;11.97;89.83
69938;DHT22;57248;47.320;15.998;2022-10-15T07:34:36;11.87;90.61
69938;DHT22;57248;47.320;15.998;2022-10-15T07:37:09;11.89;90.64
69938;DHT22;57248;47.320;15.998;2022-10-15T07:39:41;11.82;90.93
69938;DHT22;57248;47.320;15.998;2022-10-15T07:42:13;12.20;90.16
69938;DHT22;57248;47.320;15.998;2022-10-15T07:44:38;12.06;90.75
69938;DHT22;57248;47.320;15.998;2022-10-15T07:47:14;12.29;90.02
69938;DHT22;57248;47.320;15.998;2022-10-15T07:49:46;12.36;89.82
69938;DHT22;57248;47.320;15.998;2022-10-15T07:52:18;12.33;89.74
69938;DHT22;57248;47.320;15.998;2022-10-15T07:54:50;12.29;89.93
69938;DHT22;57248;47.320;15.998;2022-10-15T07:57:22;12.23;90.59
69938;DHT22;57248;47.320;15.998;2022-10-15T07:59:54;12.45;90.42
69938;DHT22;57248;47.320;15.998;2022-10-15T08:02:33;12.54;90.49
69938;DHT22;57248;47.320;15.998;2022-10-15T08:05:05;12.61;89.73
69938;DHT22;57248;47.320;15.998;2022-10-15T08:07:39;12.64;89.99
69938;DHT22;57248;47.320;15.998;2022-10-15T08:10:14;12.81;89.72
69938;DHT22;57248;47.320;15.998;2022-10-15T08:12:46;13.05;88.92
69938;DHT22;57248;47.320;15.998;2022-10-15T08:15:19;13.40;88.55
69938;DHT22;57248;47.320;15.998;2022-10-15T08:17:51;13.33;88.30
69938;DHT22;57248;47.320;15.998;2022-10-15T08:20:23;13.27;88.65
69938;DHT22;57248;47.320;15.998;2022-10-15T08:22:56;13.59;87.70
69938;DHT22;57248;47.320;15.998;2022-10-15T08:25:29;13.59;87.86
69938;DHT22;57248;47.320;15.998;2022-10-15T08:28:01;13.87;88.02
69938;DHT22;57248;47.320;15.998;2022-10-15T08:30:35;14.01;86.86
69938;DHT22;57248;47.320;15.998;2022-10-15T08:33:10;14.12;86.47
69938;DHT22;57248;47.320;15.998;2022-10-15T08:35:44;13.97;87.14
69938;DHT22;57248;47.320;15.998;2022-10-15T08:38:16;14.07;86.54
69938;DHT22;57248;47.320;15.998;2022-10-15T08:40:49;13.74;88.51
69938;DHT22;57248;47.320;15.998;2022-10-15T08:43:45;13.67;88.40
69938;DHT22;57248;47.320;15.998;2022-10-15T08:46:34;14.11;87.46
69938;DHT22;57248;47.320;15.998;2022-10-15T08:49:14;14.29;85.82
69938;DHT22;57248;47.320;15.998;2022-10-15T08:51:51;14.08;86.08
69938;DHT22;57248;47.320;15.998;2022-10-15T08:54:26;14.21;85.79
69938;DHT22;57248;47.320;15.998;2022-10-15T08:57:10;14.01;87.11
69938;DHT22;57248;47.320;15.998;2022-10-15T08:59:54;13.82;88.53
69938;DHT22;57248;47.320;15.998;2022-10-15T09:08:24;14.09;87.58
69938;DHT22;57248;47.320;15.998;2022-10-15T09:10:59;14.26;87.56
69938;DHT22;57248;47.320;15.998;2022-10-15T09:13:36;14.32;86.62
69938;DHT22;57248;47.320;15.998;2022-10-15T09:16:17;14.30;87.33
69938;DHT22;57248;47.320;15.998;2022-10-15T09:18:51;14.18;87.59
69938;DHT22;57248;47.320;15.998;2022-10-15T09:21:23;13.84;88.39
69938;DHT22;57248;47.320;15.998;2022-10-15T09:24:02;13.94;88.16
69938;DHT22;57248;47.320;15.998;2022-10-15T09:26:57;14.33;86.13
69938;DHT22;57248;47.320;15.998;2022-10-15T09:32:50;15.48;87.68
69938;DHT22;57248;47.320;15.998;2022-10-15T09:43:48;15.45;83.68
69938;DHT22;57248;47.320;15.998;2022-10-15T09:46:22;15.00;84.29
69938;DHT22;57248;47.320;15.998;2022-10-15T09:49:17;15.07;84.38
69938;DHT22;57248;47.320;15.998;2022-10-15T09:52:19;15.12;84.56
69938;DHT22;57248;47.320;15.998;2022-10-15T09:58:02;14.83;85.90
69938;DHT22;57248;47.320;15.998;2022-10-15T10:00:58;14.86;86.05
69938;DHT22;57248;47.320;15.998;2022-10-15T10:03:50;14.38;87.56
69938;DHT22;57248;47.320;15.998;2022-10-15T10:06:23;14.53;87.06
69938;DHT22;57248;47.320;15.998;2022-10-15T10:08:57;14.96;86.39
69938;DHT22;57248;47.320;15.998;2022-10-15T10:11:51;15.01;85.93
69938;DHT22;57248;47.320;15.998;2022-10-15T10:14:30;14.67;86.66
69938;DHT22;57248;47.320;15.998;2022-10-15T10:17:25;14.59;87.58
69938;DHT22;57248;47.320;15.998;2022-10-15T10:20:13;14.42;88.48
69938;DHT22;57248;47.320;15.998;2022-10-15T10:22:57;14.08;89.28
69938;DHT22;57248;47.320;15.998;2022-10-15T10:25:39;14.01;89.17
69938;DHT22;57248;47.320;15.998;2022-10-15T10:28:18;13.85;89.63
69938;DHT22;57248;47.320;15.998;2022-10-15T10:33:49;14.00;89.53
69938;DHT22;57248;47.320;15.998;2022-10-15T10:42:34;14.08;88.89
69938;DHT22;57248;47.320;15.998;2022-10-15T10:44:42;14.24;88.16
69938;DHT22;57248;47.320;15.998;2022-10-15T10:47:23;14.50;86.89
69938;DHT22;57248;47.320;15.998;2022-10-15T10:49:58;14.17;87.24
69938;DHT22;57248;47.320;15.998;2022-10-15T10:52:35;14.42;87.57
69938;DHT22;57248;47.320;15.998;2022-10-15T10:55:19;14.79;86.35
69938;DHT22;57248;47.320;15.998;2022-10-15T10:57:57;14.63;86.44
69938;DHT22;57248;47.320;15.998;2022-10-15T11:06:19;15.37;84.88
69938;DHT22;57248;47.320;15.998;2022-10-15T11:12:04;16.03;82.13
69938;DHT22;57248;47.320;15.998;2022-10-15T11:26:32;16.02;82.12
69938;DHT22;57248;47.320;15.998;2022-10-15T11:35:16;16.10;81.40
69938;DHT22;57248;47.320;15.998;2022-10-15T11:44:02;16.79;78.59
69938;DHT22;57248;47.320;15.998;2022-10-15T11:47:03;16.63;78.76
69938;DHT22;57248;47.320;15.998;2022-10-15T11:50:24;16.61;79.26
69938;DHT22;57248;47.320;15.998;2022-10-15T11:56:03;17.08;78.81
69938;DHT22;57248;47.320;15.998;2022-10-15T11:58:42;16.33;80.29
69938;DHT22;57248;47.320;15.998;2022-10-15T12:01:29;16.89;79.38
69938;DHT22;57248;47.320;15.998;2022-10-15T12:04:18;17.23;78.50
69938;DHT22;57248;47.320;15.998;2022-10-15T12:06:58;17.32;76.66
69938;DHT22;57248;47.320;15.998;2022-10-15T12:09:40;17.20;77.44
69938;DHT22;57248;47.320;15.998;2022-10-15T12:18:12;17.19;76.97
69938;DHT22;57248;47.320;15.998;2022-10-15T12:20:42;17.01;77.41
69938;DHT22;57248;47.320;15.998;2022-10-15T12:23:39;16.67;78.13
69938;DHT22;57248;47.320;15.998;2022-10-15T12:26:32;16.33;79.27
69938;DHT22;57248;47.320;15.998;2022-10-15T12:29:18;16.48;79.60
69938;DHT22;57248;47.320;15.998;2022-10-15T12:31:54;16.06;80.06
69938;DHT22;57248;47.320;15.998;2022-10-15T12:34:35;16.17;80.52
69938;DHT22;57248;47.320;15.998;2022-10-15T12:37:18;16.05;80.21
69938;DHT22;57248;47.320;15.998;2022-10-15T12:39:58;16.13;80.68
69938;DHT22;57248;47.320;15.998;2022-10-15T12:42:34;15.97;80.44
69938;DHT22;57248;47.320;15.998;2022-10-15T12:45:21;16.14;80.01
69938;DHT22;57248;47.320;15.998;2022-10-15T12:48:22;15.96;80.13
69938;DHT22;57248;47.320;15.998;2022-10-15T12:53:54;16.05;80.57
69938;DHT22;57248;47.320;15.998;2022-10-15T12:56:38;16.21;80.41
69938;DHT22;57248;47.320;15.998;2022-10-15T12:59:52;15.75;80.71
69938;DHT22;57248;47.320;15.998;2022-10-15T13:05:22;15.78;81.19
69938;DHT22;57248;47.320;15.998;2022-10-15T13:07:56;15.87;81.14
69938;DHT22;57248;47.320;15.998;2022-10-15T13:10:37;15.68;81.28
69938;DHT22;57248;47.320;15.998;2022-10-15T13:13:14;15.97;80.86
69938;DHT22;57248;47.320;15.998;2022-10-15T13:15:59;16.34;80.21
69938;DHT22;57248;47.320;15.998;2022-10-15T13:18:32;16.16;80.31
69938;DHT22;57248;47.320;15.998;2022-10-15T13:21:04;16.43;79.50
69938;DHT22;57248;47.320;15.998;2022-10-15T13:23:44;16.13;79.71
69938;DHT22;57248;47.320;15.998;2022-10-15T13:26:20;15.99;80.69
69938;DHT22;57248;47.320;15.998;2022-10-15T13:28:56;15.68;81.54
69938;DHT22;57248;47.320;15.998;2022-10-15T13:31:30;15.79;81.73
69938;DHT22;57248;47.320;15.998;2022-10-15T13:36:54;15.79;81.60
69938;DHT22;57248;47.320;15.998;2022-10-15T13:39:37;15.76;81.77
69938;DHT22;57248;47.320;15.998;2022-10-15T13:47:49;15.17;83.92
69938;DHT22;57248;47.320;15.998;2022-10-15T13:50:27;15.31;83.80
69938;DHT22;57248;47.320;15.998;2022-10-15T13:52:59;15.32;83.61
69938;DHT22;57248;47.320;15.998;2022-10-15T13:55:38;15.42;83.50
69938;DHT22;57248;47.320;15.998;2022-10-15T14:01:13;15.62;82.19
69938;DHT22;57248;47.320;15.998;2022-10-15T14:04:01;15.97;81.55
69938;DHT22;57248;47.320;15.998;2022-10-15T14:06:35;16.17;80.41
69938;DHT22;57248;47.320;15.998;2022-10-15T14:09:25;16.27;80.72
69938;DHT22;57248;47.320;15.998;2022-10-15T14:12:00;16.03;81.04
69938;DHT22;57248;47.320;15.998;2022-10-15T14:14:36;16.05;80.58
69938;DHT22;57248;47.320;15.998;2022-10-15T14:17:28;15.92;81.25
69938;DHT22;57248;47.320;15.998;2022-10-15T14:20:03;16.21;80.46
69938;DHT22;57248;47.320;15.998;2022-10-15T14:22:36;16.16;80.74
69938;DHT22;57248;47.320;15.998;2022-10-15T14:25:09;16.03;81.13
69938;DHT22;57248;47.320;15.998;2022-10-15T14:27:44;16.07;81.00
69938;DHT22;57248;47.320;15.998;2022-10-15T14:30:30;16.07;80.99
69938;DHT22;57248;47.320;15.998;2022-10-15T14:33:03;15.92;81.33
69938;DHT22;57248;47.320;15.998;2022-10-15T14:35:42;15.81;81.87
69938;DHT22;57248;47.320;15.998;2022-10-15T14:38:28;15.95;81.28
69938;DHT22;57248;47.320;15.998;2022-10-15T14:41:02;15.97;80.99
69938;DHT22;57248;47.320;15.998;2022-10-15T14:43:38;15.99;81.31
69938;DHT22;57248;47.320;15.998;2022-10-15T14:46:16;15.95;81.34
69938;DHT22;57248;47.320;15.998;2022-10-15T14:48:50;15.92;81.48
69938;DHT22;57248;47.320;15.998;2022-10-15T14:51:24;16.17;80.19
69938;DHT22;57248;47.320;15.998;2022-10-15T14:53:56;16.21;80.03
69938;DHT22;57248;47.320;15.998;2022-10-15T14:56:31;16.26;79.87
69938;DHT22;57248;47.320;15.998;2022-10-15T14:59:04;16.03;80.41
69938;DHT22;57248;47.320;15.998;2022-10-15T15:01:39;15.97;81.04
69938;DHT22;57248;47.320;15.998;2022-10-15T15:04:36;15.96;80.77
69938;DHT22;57248;47.320;15.998;2022-10-15T15:07:12;15.73;81.59
69938;DHT22;57248;47.320;15.998;2022-10-15T15:09:48;15.89;81.69
69938;DHT22;57248;47.320;15.998;2022-10-15T15:12:22;15.68;81.85
69938;DHT22;57248;47.320;15.998;2022-10-15T15:14:55;15.32;83.06
69938;DHT22;57248;47.320;15.998;2022-10-15T15:17:29;15.16;83.77
69938;DHT22;57248;47.320;15.998;2022-10-15T15:20:02;15.08;83.95
69938;DHT22;57248;47.320;15.998;2022-10-15T15:22:36;14.98;84.62
69938;DHT22;57248;47.320;15.998;2022-10-15T15:25:19;14.94;84.62
69938;DHT22;57248;47.320;15.998;2022-10-15T15:27:52;14.80;85.43
69938;DHT22;57248;47.320;15.998;2022-10-15T15:30:22;14.63;86.10
69938;DHT22;57248;47.320;15.998;2022-10-15T15:32:55;14.56;86.39
69938;DHT22;57248;47.320;15.998;2022-10-15T15:35:41;14.58;86.29
69938;DHT22;57248;47.320;15.998;2022-10-15T15:38:23;14.36;87.32
69938;DHT22;57248;47.320;15.998;2022-10-15T15:41:12;14.48;86.69
69938;DHT22;57248;47.320;15.998;2022-10-15T15:43:46;14.55;86.41
69938;DHT22;57248;47.320;15.998;2022-10-15T15:46:19;14.40;87.14
69938;DHT22;57248;47.320;15.998;2022-10-15T15:48:45;14.46;86.99
69938;DHT22;57248;47.320;15.998;2022-10-15T15:51:28;14.24;87.69
69938;DHT22;57248;47.320;15.998;2022-10-15T15:54:01;14.21;88.04
69938;DHT22;57248;47.320;15.998;2022-10-15T15:56:35;14.17;87.95
69938;DHT22;57248;47.320;15.998;2022-10-15T15:59:08;14.12;88.14
69938;DHT22;57248;47.320;15.998;2022-10-15T16:01:41;14.12;87.66
69938;DHT22;57248;47.320;15.998;2022-10-15T16:04:27;14.07;87.69
69938;DHT22;57248;47.320;15.998;2022-10-15T16:06:59;13.87;87.54
69938;DHT22;57248;47.320;15.998;2022-10-15T16:09:31;13.71;87.60
69938;DHT22;57248;47.320;15.998;2022-10-15T16:12:03;13.67;88.14
69938;DHT22;57248;47.320;15.998;2022-10-15T16:14:35;13.59;88.32
69938;DHT22;57248;47.320;15.998;2022-10-15T16:17:07;13.51;88.27
69938;DHT22;57248;47.320;15.998;2022-10-15T16:19:40;13.36;88.41
69938;DHT22;57248;47.320;15.998;2022-10-15T16:22:06;13.29;88.95
69938;DHT22;57248;47.320;15.998;2022-10-15T16:24:38;13.26;88.75
69938;DHT22;57248;47.320;15.998;2022-10-15T16:27:11;13.06;89.11
69938;DHT22;57248;47.320;15.998;2022-10-15T16:29:43;12.93;90.25
69938;DHT22;57248;47.320;15.998;2022-10-15T16:32:15;12.81;90.04
69938;DHT22;57248;47.320;15.998;2022-10-15T16:34:47;12.88;89.86
69938;DHT22;57248;47.320;15.998;2022-10-15T16:37:19;12.78;89.91
69938;DHT22;57248;47.320;15.998;2022-10-15T16:39:51;12.75;89.38
69938;DHT22;57248;47.320;15.998;2022-10-15T16:42:23;12.62;90.00
69938;DHT22;57248;47.320;15.998;2022-10-15T16:44:56;12.57;90.60
69938;DHT22;57248;47.320;15.998;2022-10-15T16:47:28;12.61;90.77
69938;DHT22;57248;47.320;15.998;2022-10-15T16:50:01;12.45;91.61
69938;DHT22;57248;47.320;15.998;2022-10-15T16:52:33;12.27;92.73
69938;DHT22;57248;47.320;15.998;2022-10-15T16:55:05;12.42;91.80
69938;DHT22;57248;47.320;15.998;2022-10-15T16:57:37;12.50;91.49
69938;DHT22;57248;47.320;15.998;2022-10-15T17:00:09;12.55;91.41
69938;DHT22;57248;47.320;15.998;2022-10-15T17:02:42;12.58;90.31
69938;DHT22;57248;47.320;15.998;2022-10-15T17:05:14;12.54;91.22
69938;DHT22;57248;47.320;15.998;2022-10-15T17:07:46;12.52;90.79
69938;DHT22;57248;47.320;15.998;2022-10-15T17:10:18;12.55;90.45
69938;DHT22;57248;47.320;15.998;2022-10-15T17:12:56;12.44;90.67
69938;DHT22;57248;47.320;15.998;2022-10-15T17:15:28;12.41;90.23
69938;DHT22;57248;47.320;15.998;2022-10-15T17:18:00;12.26;92.03
69938;DHT22;57248;47.320;15.998;2022-10-15T17:20:33;12.30;92.40
69938;DHT22;57248;47.320;15.998;2022-10-15T17:23:05;12.30;91.83
69938;DHT22;57248;47.320;15.998;2022-10-15T17:25:37;12.33;91.04
69938;DHT22;57248;47.320;15.998;2022-10-15T17:28:11;12.29;91.38
69938;DHT22;57248;47.320;15.998;2022-10-15T17:30:43;12.21;91.61
69938;DHT22;57248;47.320;15.998;2022-10-15T17:33:15;12.16;91.65
69938;DHT22;57248;47.320;15.998;2022-10-15T17:35:47;12.20;91.94
69938;DHT22;57248;47.320;15.998;2022-10-15T17:38:20;12.13;92.16
69938;DHT22;57248;47.320;15.998;2022-10-15T17:40:52;12.06;92.65
69938;DHT22;57248;47.320;15.998;2022-10-15T17:43:25;11.89;92.80
69938;DHT22;57248;47.320;15.998;2022-10-15T17:46:03;12.01;92.19
69938;DHT22;57248;47.320;15.998;2022-10-15T17:48:36;11.99;92.10
69938;DHT22;57248;47.320;15.998;2022-10-15T17:51:15;11.96;91.45
69938;DHT22;57248;47.320;15.998;2022-10-15T17:53:52;11.90;91.40
69938;DHT22;57248;47.320;15.998;2022-10-15T17:56:26;11.89;91.56
69938;DHT22;57248;47.320;15.998;2022-10-15T17:59:06;11.76;93.02
69938;DHT22;57248;47.320;15.998;2022-10-15T18:01:40;11.82;92.13
69938;DHT22;57248;47.320;15.998;2022-10-15T18:04:19;11.71;91.79
69938;DHT22;57248;47.320;15.998;2022-10-15T18:06:51;11.65;91.89
69938;DHT22;57248;47.320;15.998;2022-10-15T18:09:25;11.62;91.79
69938;DHT22;57248;47.320;15.998;2022-10-15T18:11:59;11.57;92.05
69938;DHT22;57248;47.320;15.998;2022-10-15T18:14:33;11.49;91.70
69938;DHT22;57248;47.320;15.998;2022-10-15T18:17:06;11.43;91.68
69938;DHT22;57248;47.320;15.998;2022-10-15T18:19:38;11.41;92.11
69938;DHT22;57248;47.320;15.998;2022-10-15T18:22:11;11.35;91.83
69938;DHT22;57248;47.320;15.998;2022-10-15T18:24:43;11.28;91.71